PWSweather.com
Personal Weather Stations
Station Observations
KNCCHINA3
Red Tractor Trail, China Grove, NC 28023

Red Tractor TrailChina Grove, NC 28023

Lat: 35.59751, Lon: -80.60201

Elevation: 800

Station Type: Oregon Scientific WMR 968

http://www.joesweathergarage.com

High Low Average
Temperature 74.3°F23.5°C 42.7°F5.9°C 58.6°F14.8°C
Dew Point 52.9°F11.6°C 37.8°F3.2°C 45.4°F7.4°C
Winds 10.6 mph 17.1 kmh Calm Calm 3.0 mph SE4.8 kmh SE
Wind Gusts 17.4 mph28.0 kmh -- 5.0 mph8.0 kmh
Humidity 97% 34% 65%
Pressure 30.36 in1028.1 mb 30.21 in1023.0 mb -
Precipitation 0.00 in0.0 mm - -
Hour Temp Dew Point Humidity Winds Wind Gusts Pressure Precip Precip Rate Daily Precip Total
12:00 AM 46.3°F7.9°C 37.8°F3.2°C 72% Calm Calm -- 30.30 in1026.1 mb 0.00 in0.0 mm 0.00 in0.0 mm 0.00 in0.0 mm
12:05 AM 46.3°F7.9°C 37.8°F3.2°C 72% Calm Calm -- 30.30 in1026.1 mb 0.00 in0.0 mm 0.00 in0.0 mm 0.00 in0.0 mm
12:10 AM 46.1°F7.8°C 38.9°F3.8°C 76% 2.2 mph S3.5 kmh S 4.0 mph6.4 kmh 30.30 in1026.1 mb 0.00 in0.0 mm 0.00 in0.0 mm 0.00 in0.0 mm
12:15 AM 45.8°F7.7°C 39.0°F3.9°C 77% Calm Calm 4.0 mph6.4 kmh 30.30 in1026.1 mb 0.00 in0.0 mm 0.00 in0.0 mm 0.00 in0.0 mm
12:22 AM 45.4°F7.4°C 38.6°F3.7°C 77% Calm Calm -- 30.33 in1027.1 mb 0.00 in0.0 mm 0.00 in0.0 mm 0.00 in0.0 mm
12:27 AM 45.2°F7.3°C 38.1°F3.4°C 76% Calm Calm -- 30.33 in1027.1 mb 0.00 in0.0 mm 0.00 in0.0 mm 0.00 in0.0 mm
12:32 AM 45.4°F7.4°C 38.3°F3.5°C 76% Calm Calm -- 30.33 in1027.1 mb 0.00 in0.0 mm 0.00 in0.0 mm 0.00 in0.0 mm
12:38 AM 45.6°F7.6°C 38.1°F3.4°C 75% Calm Calm -- 30.30 in1026.1 mb 0.00 in0.0 mm 0.00 in0.0 mm 0.00 in0.0 mm
12:43 AM 45.9°F7.7°C 38.4°F3.6°C 75% Calm Calm -- 30.30 in1026.1 mb 0.00 in0.0 mm 0.00 in0.0 mm 0.00 in0.0 mm
12:48 AM 46.1°F7.8°C 38.6°F3.7°C 75% Calm Calm -- 30.30 in1026.1 mb 0.00 in0.0 mm 0.00 in0.0 mm 0.00 in0.0 mm
12:54 AM 46.1°F7.8°C 38.6°F3.7°C 75% Calm Calm -- 30.30 in1026.1 mb 0.00 in0.0 mm 0.00 in0.0 mm 0.00 in0.0 mm
12:59 AM 46.1°F7.8°C 38.3°F3.5°C 74% Calm Calm -- 30.30 in1026.1 mb 0.00 in0.0 mm 0.00 in0.0 mm 0.00 in0.0 mm
01:04 AM 46.1°F7.8°C 38.3°F3.5°C 74% Calm Calm -- 30.30 in1026.1 mb 0.00 in0.0 mm 0.00 in0.0 mm 0.00 in0.0 mm
01:09 AM 46.3°F7.9°C 38.1°F3.4°C 73% Calm Calm -- 30.30 in1026.1 mb 0.00 in0.0 mm 0.00 in0.0 mm 0.00 in0.0 mm
01:14 AM 46.3°F7.9°C 38.1°F3.4°C 73% Calm Calm -- 30.30 in1026.1 mb 0.00 in0.0 mm 0.00 in0.0 mm 0.00 in0.0 mm
01:19 AM 46.1°F7.8°C 38.3°F3.5°C 74% Calm Calm -- 30.30 in1026.1 mb 0.00 in0.0 mm 0.00 in0.0 mm 0.00 in0.0 mm
01:24 AM 45.9°F7.7°C 38.7°F3.7°C 76% Calm Calm -- 30.30 in1026.1 mb 0.00 in0.0 mm 0.00 in0.0 mm 0.00 in0.0 mm
01:29 AM 45.8°F7.7°C 38.3°F3.5°C 75% Calm Calm -- 30.30 in1026.1 mb 0.00 in0.0 mm 0.00 in0.0 mm 0.00 in0.0 mm
01:34 AM 45.8°F7.7°C 38.3°F3.5°C 75% Calm Calm -- 30.30 in1026.1 mb 0.00 in0.0 mm 0.00 in0.0 mm 0.00 in0.0 mm
01:39 AM 45.8°F7.7°C 38.3°F3.5°C 75% Calm Calm -- 30.30 in1026.1 mb 0.00 in0.0 mm 0.00 in0.0 mm 0.00 in0.0 mm
01:45 AM 45.8°F7.7°C 38.3°F3.5°C 75% Calm Calm -- 30.30 in1026.1 mb 0.00 in0.0 mm 0.00 in0.0 mm 0.00 in0.0 mm
01:50 AM 45.8°F7.7°C 38.6°F3.7°C 76% Calm Calm -- 30.30 in1026.1 mb 0.00 in0.0 mm 0.00 in0.0 mm 0.00 in0.0 mm
01:56 AM 45.6°F7.6°C 38.5°F3.6°C 76% Calm Calm -- 30.30 in1026.1 mb 0.00 in0.0 mm 0.00 in0.0 mm 0.00 in0.0 mm
02:01 AM 45.6°F7.6°C 38.5°F3.6°C 76% Calm Calm -- 30.30 in1026.1 mb 0.00 in0.0 mm 0.00 in0.0 mm 0.00 in0.0 mm
02:06 AM 45.4°F7.4°C 38.6°F3.7°C 77% Calm Calm -- 30.27 in1025.1 mb 0.00 in0.0 mm 0.00 in0.0 mm 0.00 in0.0 mm
02:11 AM 45.4°F7.4°C 38.6°F3.7°C 77% Calm Calm -- 30.27 in1025.1 mb 0.00 in0.0 mm 0.00 in0.0 mm 0.00 in0.0 mm
02:17 AM 45.2°F7.3°C 38.4°F3.6°C 77% Calm Calm -- 30.27 in1025.1 mb 0.00 in0.0 mm 0.00 in0.0 mm 0.00 in0.0 mm
02:22 AM 45.0°F7.2°C 38.5°F3.6°C 78% Calm Calm -- 30.27 in1025.1 mb 0.00 in0.0 mm 0.00 in0.0 mm 0.00 in0.0 mm
02:28 AM 44.9°F7.2°C 39.1°F3.9°C 80% Calm Calm -- 30.27 in1025.1 mb 0.00 in0.0 mm 0.00 in0.0 mm 0.00 in0.0 mm
02:33 AM 44.7°F7.1°C 38.9°F3.8°C 80% Calm Calm -- 30.27 in1025.1 mb 0.00 in0.0 mm 0.00 in0.0 mm 0.00 in0.0 mm
02:38 AM 44.7°F7.1°C 39.2°F4.0°C 81% Calm Calm -- 30.27 in1025.1 mb 0.00 in0.0 mm 0.00 in0.0 mm 0.00 in0.0 mm
02:43 AM 44.5°F6.9°C 39.0°F3.9°C 81% Calm Calm -- 30.27 in1025.1 mb 0.00 in0.0 mm 0.00 in0.0 mm 0.00 in0.0 mm
02:48 AM 44.3°F6.8°C 39.4°F4.1°C 83% Calm Calm -- 30.27 in1025.1 mb 0.00 in0.0 mm 0.00 in0.0 mm 0.00 in0.0 mm
02:53 AM 44.1°F6.7°C 38.9°F3.8°C 82% 2.1 mph SSE3.4 kmh SSE 2.2 mph3.5 kmh 30.27 in1025.1 mb 0.00 in0.0 mm 0.00 in0.0 mm 0.00 in0.0 mm
02:58 AM 44.5°F6.9°C 39.0°F3.9°C 81% Calm Calm 2.2 mph3.5 kmh 30.27 in1025.1 mb 0.00 in0.0 mm 0.00 in0.0 mm 0.00 in0.0 mm
03:03 AM 45.0°F7.2°C 39.8°F4.3°C 82% 2.4 mph SSE3.9 kmh SSE 4.0 mph6.4 kmh 30.27 in1025.1 mb 0.00 in0.0 mm 0.00 in0.0 mm 0.00 in0.0 mm
03:08 AM 45.2°F7.3°C 40.6°F4.8°C 84% Calm Calm 4.0 mph6.4 kmh 30.27 in1025.1 mb 0.00 in0.0 mm 0.00 in0.0 mm 0.00 in0.0 mm
03:13 AM 45.4°F7.4°C 40.8°F4.9°C 84% 2.6 mph SSE4.2 kmh SSE 3.2 mph5.1 kmh 30.27 in1025.1 mb 0.00 in0.0 mm 0.00 in0.0 mm 0.00 in0.0 mm
03:18 AM 45.8°F7.7°C 41.2°F5.1°C 84% 2.5 mph SSE4.0 kmh SSE 4.0 mph6.4 kmh 30.27 in1025.1 mb 0.00 in0.0 mm 0.00 in0.0 mm 0.00 in0.0 mm
03:23 AM 45.8°F7.7°C 41.5°F5.3°C 85% Calm Calm 4.0 mph6.4 kmh 30.27 in1025.1 mb 0.00 in0.0 mm 0.00 in0.0 mm 0.00 in0.0 mm
03:28 AM 45.4°F7.4°C 41.1°F5.1°C 85% Calm Calm -- 30.27 in1025.1 mb 0.00 in0.0 mm 0.00 in0.0 mm 0.00 in0.0 mm
03:33 AM 45.2°F7.3°C 40.9°F4.9°C 85% Calm Calm -- 30.27 in1025.1 mb 0.00 in0.0 mm 0.00 in0.0 mm 0.00 in0.0 mm
03:39 AM 45.0°F7.2°C 41.0°F5.0°C 86% Calm Calm -- 30.30 in1026.1 mb 0.00 in0.0 mm 0.00 in0.0 mm 0.00 in0.0 mm
03:44 AM 45.0°F7.2°C 41.0°F5.0°C 86% Calm Calm -- 30.30 in1026.1 mb 0.00 in0.0 mm 0.00 in0.0 mm 0.00 in0.0 mm
03:50 AM 45.0°F7.2°C 41.0°F5.0°C 86% Calm Calm -- 30.30 in1026.1 mb 0.00 in0.0 mm 0.00 in0.0 mm 0.00 in0.0 mm
03:55 AM 44.9°F7.2°C 40.9°F4.9°C 86% Calm Calm -- 30.30 in1026.1 mb 0.00 in0.0 mm 0.00 in0.0 mm 0.00 in0.0 mm
04:01 AM 44.7°F7.1°C 40.7°F4.8°C 86% Calm Calm -- 30.30 in1026.1 mb 0.00 in0.0 mm 0.00 in0.0 mm 0.00 in0.0 mm
04:06 AM 44.5°F6.9°C 40.8°F4.9°C 87% Calm Calm -- 30.27 in1025.1 mb 0.00 in0.0 mm 0.00 in0.0 mm 0.00 in0.0 mm
04:11 AM 44.5°F6.9°C 40.8°F4.9°C 87% Calm Calm -- 30.27 in1025.1 mb 0.00 in0.0 mm 0.00 in0.0 mm 0.00 in0.0 mm
04:16 AM 44.3°F6.8°C 40.6°F4.8°C 87% Calm Calm -- 30.27 in1025.1 mb 0.00 in0.0 mm 0.00 in0.0 mm 0.00 in0.0 mm
04:21 AM 44.1°F6.7°C 40.7°F4.8°C 88% Calm Calm -- 30.27 in1025.1 mb 0.00 in0.0 mm 0.00 in0.0 mm 0.00 in0.0 mm
04:27 AM 44.0°F6.7°C 40.9°F4.9°C 89% Calm Calm -- 30.27 in1025.1 mb 0.00 in0.0 mm 0.00 in0.0 mm 0.00 in0.0 mm
04:32 AM 43.8°F6.6°C 40.7°F4.8°C 89% Calm Calm -- 30.27 in1025.1 mb 0.00 in0.0 mm 0.00 in0.0 mm 0.00 in0.0 mm
04:37 AM 43.8°F6.6°C 40.4°F4.7°C 88% Calm Calm -- 30.30 in1026.1 mb 0.00 in0.0 mm 0.00 in0.0 mm 0.00 in0.0 mm
04:43 AM 43.6°F6.4°C 40.7°F4.8°C 90% Calm Calm -- 30.30 in1026.1 mb 0.00 in0.0 mm 0.00 in0.0 mm 0.00 in0.0 mm
04:48 AM 43.4°F6.3°C 40.5°F4.7°C 90% Calm Calm -- 30.30 in1026.1 mb 0.00 in0.0 mm 0.00 in0.0 mm 0.00 in0.0 mm
04:53 AM 43.2°F6.2°C 40.6°F4.8°C 91% Calm Calm -- 30.30 in1026.1 mb 0.00 in0.0 mm 0.00 in0.0 mm 0.00 in0.0 mm
04:58 AM 43.2°F6.2°C 40.6°F4.8°C 91% 2.9 mph SSE4.7 kmh SSE 3.2 mph5.1 kmh 30.30 in1026.1 mb 0.00 in0.0 mm 0.00 in0.0 mm 0.00 in0.0 mm
05:03 AM 43.2°F6.2°C 40.4°F4.7°C 90% 4.6 mph ENE7.4 kmh ENE 5.0 mph8.0 kmh 30.30 in1026.1 mb 0.00 in0.0 mm 0.00 in0.0 mm 0.00 in0.0 mm
05:08 AM 43.2°F6.2°C 40.6°F4.8°C 91% 3.9 mph ENE6.3 kmh ENE 5.0 mph8.0 kmh 30.30 in1026.1 mb 0.00 in0.0 mm 0.00 in0.0 mm 0.00 in0.0 mm
05:13 AM 43.4°F6.3°C 41.9°F5.5°C 95% 2.7 mph ENE4.3 kmh ENE 5.0 mph8.0 kmh 30.30 in1026.1 mb 0.00 in0.0 mm 0.00 in0.0 mm 0.00 in0.0 mm
05:18 AM 43.4°F6.3°C 41.9°F5.5°C 95% Calm Calm 4.4 mph7.1 kmh 30.30 in1026.1 mb 0.00 in0.0 mm 0.00 in0.0 mm 0.00 in0.0 mm
05:23 AM 43.2°F6.2°C 41.7°F5.4°C 95% 2.9 mph ENE4.7 kmh ENE 4.0 mph6.4 kmh 30.30 in1026.1 mb 0.00 in0.0 mm 0.00 in0.0 mm 0.00 in0.0 mm
05:28 AM 43.1°F6.2°C 41.4°F5.2°C 94% 4.3 mph ENE6.9 kmh ENE 5.0 mph8.0 kmh 30.30 in1026.1 mb 0.00 in0.0 mm 0.00 in0.0 mm 0.00 in0.0 mm
05:34 AM 42.9°F6.1°C 41.5°F5.3°C 95% 2.5 mph ENE4.0 kmh ENE 5.0 mph8.0 kmh 30.30 in1026.1 mb 0.00 in0.0 mm 0.00 in0.0 mm 0.00 in0.0 mm
05:39 AM 42.9°F6.1°C 41.5°F5.3°C 95% Calm Calm 4.4 mph7.1 kmh 30.30 in1026.1 mb 0.00 in0.0 mm 0.00 in0.0 mm 0.00 in0.0 mm
05:45 AM 42.9°F6.1°C 41.2°F5.1°C 94% 2.1 mph ENE3.4 kmh ENE 4.0 mph6.4 kmh 30.30 in1026.1 mb 0.00 in0.0 mm 0.00 in0.0 mm 0.00 in0.0 mm
05:50 AM 42.7°F5.9°C 41.3°F5.2°C 95% Calm Calm 4.0 mph6.4 kmh 30.30 in1026.1 mb 0.00 in0.0 mm 0.00 in0.0 mm 0.00 in0.0 mm
05:55 AM 42.9°F6.1°C 41.5°F5.3°C 95% Calm Calm -- 30.30 in1026.1 mb 0.00 in0.0 mm 0.00 in0.0 mm 0.00 in0.0 mm
06:00 AM 42.9°F6.1°C 41.5°F5.3°C 95% Calm Calm -- 30.30 in1026.1 mb 0.00 in0.0 mm 0.00 in0.0 mm 0.00 in0.0 mm
06:05 AM 43.1°F6.2°C 41.6°F5.3°C 95% Calm Calm -- 30.33 in1027.1 mb 0.00 in0.0 mm 0.00 in0.0 mm 0.00 in0.0 mm
06:10 AM 43.2°F6.2°C 41.7°F5.4°C 95% Calm Calm -- 30.33 in1027.1 mb 0.00 in0.0 mm 0.00 in0.0 mm 0.00 in0.0 mm
06:15 AM 43.2°F6.2°C 41.7°F5.4°C 95% Calm Calm -- 30.33 in1027.1 mb 0.00 in0.0 mm 0.00 in0.0 mm 0.00 in0.0 mm
06:20 AM 43.2°F6.2°C 41.7°F5.4°C 95% Calm Calm -- 30.30 in1026.1 mb 0.00 in0.0 mm 0.00 in0.0 mm 0.00 in0.0 mm
06:25 AM 43.6°F6.4°C 42.7°F5.9°C 97% 1.8 mph ENE2.9 kmh ENE 1.8 mph2.9 kmh 30.30 in1026.1 mb 0.00 in0.0 mm 0.00 in0.0 mm 0.00 in0.0 mm
06:30 AM 43.6°F6.4°C 42.4°F5.8°C 96% Calm Calm 1.8 mph2.9 kmh 30.30 in1026.1 mb 0.00 in0.0 mm 0.00 in0.0 mm 0.00 in0.0 mm
06:35 AM 43.8°F6.6°C 42.6°F5.9°C 96% Calm Calm -- 30.33 in1027.1 mb 0.00 in0.0 mm 0.00 in0.0 mm 0.00 in0.0 mm
06:40 AM 44.1°F6.7°C 42.9°F6.1°C 96% 2.2 mph ENE3.5 kmh ENE 2.6 mph4.2 kmh 30.33 in1027.1 mb 0.00 in0.0 mm 0.00 in0.0 mm 0.00 in0.0 mm
06:45 AM 44.3°F6.8°C 43.1°F6.2°C 96% Calm Calm 2.6 mph4.2 kmh 30.33 in1027.1 mb 0.00 in0.0 mm 0.00 in0.0 mm 0.00 in0.0 mm
06:50 AM 45.0°F7.2°C 43.5°F6.4°C 95% 3.4 mph ENE5.5 kmh ENE 4.0 mph6.4 kmh 30.33 in1027.1 mb 0.00 in0.0 mm 0.00 in0.0 mm 0.00 in0.0 mm
06:56 AM 45.9°F7.7°C 44.4°F6.9°C 95% 2.2 mph ENE3.5 kmh ENE 4.0 mph6.4 kmh 30.33 in1027.1 mb 0.00 in0.0 mm 0.00 in0.0 mm 0.00 in0.0 mm
07:00 AM 47.0°F8.3°C 45.5°F7.5°C 95% 1.8 mph ENE2.9 kmh ENE 3.2 mph5.1 kmh 30.33 in1027.1 mb 0.00 in0.0 mm 0.00 in0.0 mm 0.00 in0.0 mm
07:06 AM 47.9°F8.8°C 46.4°F8.0°C 95% 2.0 mph ENE3.2 kmh ENE 3.2 mph5.1 kmh 30.36 in1028.1 mb 0.00 in0.0 mm 0.00 in0.0 mm 0.00 in0.0 mm
07:11 AM 49.0°F9.4°C 47.2°F8.4°C 94% 2.5 mph ENE4.0 kmh ENE 3.2 mph5.1 kmh 30.36 in1028.1 mb 0.00 in0.0 mm 0.00 in0.0 mm 0.00 in0.0 mm
07:17 AM 49.9°F9.9°C 47.8°F8.8°C 93% 4.6 mph NNE7.4 kmh NNE 6.2 mph10.0 kmh 30.36 in1028.1 mb 0.00 in0.0 mm 0.00 in0.0 mm 0.00 in0.0 mm
07:22 AM 51.2°F10.7°C 49.1°F9.5°C 93% 3.0 mph ENE4.8 kmh ENE 6.2 mph10.0 kmh 30.36 in1028.1 mb 0.00 in0.0 mm 0.00 in0.0 mm 0.00 in0.0 mm
07:27 AM 52.1°F11.2°C 49.4°F9.7°C 91% 2.9 mph ENE4.7 kmh ENE 5.0 mph8.0 kmh 30.36 in1028.1 mb 0.00 in0.0 mm 0.00 in0.0 mm 0.00 in0.0 mm
07:32 AM 52.6°F11.4°C 49.0°F9.4°C 88% 2.8 mph ENE4.5 kmh ENE 5.0 mph8.0 kmh 30.36 in1028.1 mb 0.00 in0.0 mm 0.00 in0.0 mm 0.00 in0.0 mm
07:37 AM 53.1°F11.7°C 49.2°F9.6°C 87% 3.2 mph ENE5.1 kmh ENE 5.0 mph8.0 kmh 30.36 in1028.1 mb 0.00 in0.0 mm 0.00 in0.0 mm 0.00 in0.0 mm
07:42 AM 53.9°F12.2°C 49.7°F9.8°C 86% 2.2 mph ENE3.5 kmh ENE 4.0 mph6.4 kmh 30.36 in1028.1 mb 0.00 in0.0 mm 0.00 in0.0 mm 0.00 in0.0 mm
07:48 AM 54.9°F12.7°C 50.1°F10.1°C 84% 4.3 mph ESE6.9 kmh ESE 5.4 mph8.7 kmh 30.36 in1028.1 mb 0.00 in0.0 mm 0.00 in0.0 mm 0.00 in0.0 mm
07:53 AM 56.0°F13.3°C 50.5°F10.3°C 82% 3.5 mph ENE5.6 kmh ENE 5.4 mph8.7 kmh 30.36 in1028.1 mb 0.00 in0.0 mm 0.00 in0.0 mm 0.00 in0.0 mm
07:58 AM 56.4°F13.6°C 50.2°F10.1°C 80% 3.8 mph SE6.1 kmh SE 6.2 mph10.0 kmh 30.36 in1028.1 mb 0.00 in0.0 mm 0.00 in0.0 mm 0.00 in0.0 mm
08:03 AM 56.6°F13.7°C 49.8°F9.9°C 78% 3.4 mph SE5.5 kmh SE 6.2 mph10.0 kmh 30.36 in1028.1 mb 0.00 in0.0 mm 0.00 in0.0 mm 0.00 in0.0 mm
08:08 AM 56.6°F13.7°C 49.4°F9.7°C 77% 2.7 mph SE4.3 kmh SE 6.2 mph10.0 kmh 30.36 in1028.1 mb 0.00 in0.0 mm 0.00 in0.0 mm 0.00 in0.0 mm
08:13 AM 56.7°F13.7°C 49.5°F9.7°C 77% 3.2 mph SE5.1 kmh SE 4.0 mph6.4 kmh 30.36 in1028.1 mb 0.00 in0.0 mm 0.00 in0.0 mm 0.00 in0.0 mm
08:18 AM 57.8°F14.3°C 49.9°F9.9°C 75% 3.3 mph SSE5.3 kmh SSE 4.4 mph7.1 kmh 30.36 in1028.1 mb 0.00 in0.0 mm 0.00 in0.0 mm 0.00 in0.0 mm
08:23 AM 58.4°F14.7°C 49.8°F9.9°C 73% 4.0 mph S6.4 kmh S 5.0 mph8.0 kmh 30.36 in1028.1 mb 0.00 in0.0 mm 0.00 in0.0 mm 0.00 in0.0 mm
08:29 AM 59.8°F15.4°C 50.4°F10.2°C 71% 3.8 mph SSE6.1 kmh SSE 5.8 mph9.3 kmh 30.36 in1028.1 mb 0.00 in0.0 mm 0.00 in0.0 mm 0.00 in0.0 mm
08:34 AM 59.6°F15.3°C 49.1°F9.5°C 68% 3.7 mph SSE6.0 kmh SSE 6.8 mph10.9 kmh 30.36 in1028.1 mb 0.00 in0.0 mm 0.00 in0.0 mm 0.00 in0.0 mm
08:40 AM 60.1°F15.6°C 49.2°F9.6°C 67% 5.0 mph S8.0 kmh S 6.8 mph10.9 kmh 30.36 in1028.1 mb 0.00 in0.0 mm 0.00 in0.0 mm 0.00 in0.0 mm
08:45 AM 62.0°F16.7°C 50.6°F10.3°C 66% 3.6 mph SSE5.8 kmh SSE 6.2 mph10.0 kmh 30.36 in1028.1 mb 0.00 in0.0 mm 0.00 in0.0 mm 0.00 in0.0 mm
08:50 AM 63.3°F17.4°C 51.5°F10.8°C 65% 2.9 mph S4.7 kmh S 6.8 mph10.9 kmh 30.36 in1028.1 mb 0.00 in0.0 mm 0.00 in0.0 mm 0.00 in0.0 mm
08:55 AM 63.1°F17.3°C 48.2°F9.0°C 58% 4.3 mph S6.9 kmh S 9.4 mph15.1 kmh 30.36 in1028.1 mb 0.00 in0.0 mm 0.00 in0.0 mm 0.00 in0.0 mm
09:01 AM 64.2°F17.9°C 49.7°F9.8°C 59% 2.6 mph SSE4.2 kmh SSE 9.4 mph15.1 kmh 30.36 in1028.1 mb 0.00 in0.0 mm 0.00 in0.0 mm 0.00 in0.0 mm
09:06 AM 65.8°F18.8°C 50.7°F10.4°C 58% 4.4 mph SE7.1 kmh SE 6.2 mph10.0 kmh 30.36 in1028.1 mb 0.00 in0.0 mm 0.00 in0.0 mm 0.00 in0.0 mm
09:13 AM 66.9°F19.4°C 50.8°F10.4°C 56% 3.1 mph S5.0 kmh S 6.8 mph10.9 kmh 30.36 in1028.1 mb 0.00 in0.0 mm 0.00 in0.0 mm 0.00 in0.0 mm
09:18 AM 66.2°F19.0°C 48.6°F9.2°C 53% 4.4 mph S7.1 kmh S 5.4 mph8.7 kmh 30.36 in1028.1 mb 0.00 in0.0 mm 0.00 in0.0 mm 0.00 in0.0 mm
09:23 AM 66.4°F19.1°C 48.3°F9.1°C 52% 4.5 mph S7.2 kmh S 7.2 mph11.6 kmh 30.33 in1027.1 mb 0.00 in0.0 mm 0.00 in0.0 mm 0.00 in0.0 mm
09:28 AM 66.5°F19.2°C 48.9°F9.4°C 53% 2.8 mph SSE4.5 kmh SSE 7.2 mph11.6 kmh 30.33 in1027.1 mb 0.00 in0.0 mm 0.00 in0.0 mm 0.00 in0.0 mm
09:33 AM 66.7°F19.3°C 48.0°F8.9°C 51% 6.6 mph S10.6 kmh S 8.0 mph12.9 kmh 30.33 in1027.1 mb 0.00 in0.0 mm 0.00 in0.0 mm 0.00 in0.0 mm
09:38 AM 67.4°F19.7°C 49.2°F9.6°C 52% 5.6 mph SE9.0 kmh SE 8.0 mph12.9 kmh 30.33 in1027.1 mb 0.00 in0.0 mm 0.00 in0.0 mm 0.00 in0.0 mm
09:43 AM 68.0°F20.0°C 49.2°F9.6°C 51% 2.6 mph SE4.2 kmh SE 7.2 mph11.6 kmh 30.33 in1027.1 mb 0.00 in0.0 mm 0.00 in0.0 mm 0.00 in0.0 mm
09:48 AM 68.0°F20.0°C 48.7°F9.3°C 50% 5.1 mph ESE8.2 kmh ESE 7.6 mph12.2 kmh 30.33 in1027.1 mb 0.00 in0.0 mm 0.00 in0.0 mm 0.00 in0.0 mm
09:53 AM 68.3°F20.2°C 48.9°F9.4°C 50% 3.8 mph SE6.1 kmh SE 8.0 mph12.9 kmh 30.33 in1027.1 mb 0.00 in0.0 mm 0.00 in0.0 mm 0.00 in0.0 mm
09:58 AM 69.1°F20.6°C 49.7°F9.8°C 50% 5.9 mph SE9.5 kmh SE 8.0 mph12.9 kmh 30.33 in1027.1 mb 0.00 in0.0 mm 0.00 in0.0 mm 0.00 in0.0 mm
10:04 AM 69.6°F20.9°C 49.6°F9.8°C 49% 4.0 mph ESE6.4 kmh ESE 7.6 mph12.2 kmh 30.33 in1027.1 mb 0.00 in0.0 mm 0.00 in0.0 mm 0.00 in0.0 mm
10:09 AM 69.1°F20.6°C 48.6°F9.2°C 48% 4.4 mph SE7.1 kmh SE 8.0 mph12.9 kmh 30.33 in1027.1 mb 0.00 in0.0 mm 0.00 in0.0 mm 0.00 in0.0 mm
10:15 AM 68.3°F20.2°C 47.8°F8.8°C 48% 5.2 mph S8.4 kmh S 16.2 mph26.1 kmh 30.33 in1027.1 mb 0.00 in0.0 mm 0.00 in0.0 mm 0.00 in0.0 mm
10:20 AM 68.9°F20.5°C 48.4°F9.1°C 48% 6.0 mph ESE9.7 kmh ESE 16.2 mph26.1 kmh 30.33 in1027.1 mb 0.00 in0.0 mm 0.00 in0.0 mm 0.00 in0.0 mm
10:25 AM 69.1°F20.6°C 48.6°F9.2°C 48% 5.0 mph SSW8.0 kmh SSW 9.8 mph15.8 kmh 30.33 in1027.1 mb 0.00 in0.0 mm 0.00 in0.0 mm 0.00 in0.0 mm
10:30 AM 69.1°F20.6°C 48.0°F8.9°C 47% 3.5 mph S5.6 kmh S 7.6 mph12.2 kmh 30.33 in1027.1 mb 0.00 in0.0 mm 0.00 in0.0 mm 0.00 in0.0 mm
10:37 AM 68.5°F20.3°C 47.4°F8.6°C 47% 4.8 mph S7.7 kmh S 7.6 mph12.2 kmh 30.33 in1027.1 mb 0.00 in0.0 mm 0.00 in0.0 mm 0.00 in0.0 mm
10:42 AM 69.2°F20.7°C 48.1°F8.9°C 47% 6.7 mph SE10.8 kmh SE 12.0 mph19.3 kmh 30.33 in1027.1 mb 0.00 in0.0 mm 0.00 in0.0 mm 0.00 in0.0 mm
10:49 AM 68.9°F20.5°C 47.2°F8.4°C 46% 7.7 mph SE12.4 kmh SE 12.0 mph19.3 kmh 30.33 in1027.1 mb 0.00 in0.0 mm 0.00 in0.0 mm 0.00 in0.0 mm
10:54 AM 69.2°F20.7°C 47.5°F8.6°C 46% 5.2 mph SSE8.4 kmh SSE 12.0 mph19.3 kmh 30.30 in1026.1 mb 0.00 in0.0 mm 0.00 in0.0 mm 0.00 in0.0 mm
11:00 AM 69.8°F21.0°C 46.8°F8.2°C 44% 3.9 mph SSW6.3 kmh SSW 12.0 mph19.3 kmh 30.30 in1026.1 mb 0.00 in0.0 mm 0.00 in0.0 mm 0.00 in0.0 mm
11:05 AM 70.1°F21.2°C 47.1°F8.4°C 44% 5.0 mph SE8.0 kmh SE 12.0 mph19.3 kmh 30.33 in1027.1 mb 0.00 in0.0 mm 0.00 in0.0 mm 0.00 in0.0 mm
11:10 AM 71.6°F22.0°C 48.4°F9.1°C 44% 4.3 mph SE6.9 kmh SE 8.0 mph12.9 kmh 30.33 in1027.1 mb 0.00 in0.0 mm 0.00 in0.0 mm 0.00 in0.0 mm
11:15 AM 71.8°F22.1°C 48.0°F8.9°C 43% 7.0 mph ESE11.3 kmh ESE 12.0 mph19.3 kmh 30.33 in1027.1 mb 0.00 in0.0 mm 0.00 in0.0 mm 0.00 in0.0 mm
11:20 AM 73.0°F22.8°C 48.4°F9.1°C 42% 8.3 mph ESE13.4 kmh ESE 13.0 mph20.9 kmh 30.33 in1027.1 mb 0.00 in0.0 mm 0.00 in0.0 mm 0.00 in0.0 mm
11:25 AM 73.7°F23.2°C 48.4°F9.1°C 41% 4.6 mph ESE7.4 kmh ESE 13.0 mph20.9 kmh 30.33 in1027.1 mb 0.00 in0.0 mm 0.00 in0.0 mm 0.00 in0.0 mm
11:30 AM 72.5°F22.5°C 45.3°F7.4°C 38% 10.6 mph ESE17.1 kmh ESE 17.4 mph28.0 kmh 30.33 in1027.1 mb 0.00 in0.0 mm 0.00 in0.0 mm 0.00 in0.0 mm
11:35 AM 72.5°F22.5°C 46.0°F7.8°C 39% 7.9 mph ESE12.7 kmh ESE 17.4 mph28.0 kmh 30.33 in1027.1 mb 0.00 in0.0 mm 0.00 in0.0 mm 0.00 in0.0 mm
11:40 AM 72.3°F22.4°C 45.8°F7.7°C 39% 8.3 mph SE13.4 kmh SE 12.6 mph20.3 kmh 30.33 in1027.1 mb 0.00 in0.0 mm 0.00 in0.0 mm 0.00 in0.0 mm
11:45 AM 71.8°F22.1°C 44.6°F7.0°C 38% 6.6 mph SE10.6 kmh SE 12.0 mph19.3 kmh 30.33 in1027.1 mb 0.00 in0.0 mm 0.00 in0.0 mm 0.00 in0.0 mm
11:51 AM 70.9°F21.6°C 44.5°F6.9°C 39% 4.1 mph SE6.6 kmh SE 12.0 mph19.3 kmh 30.30 in1026.1 mb 0.00 in0.0 mm 0.00 in0.0 mm 0.00 in0.0 mm
11:56 AM 70.0°F21.1°C 44.4°F6.9°C 40% 5.1 mph S8.2 kmh S 8.6 mph13.8 kmh 30.30 in1026.1 mb 0.00 in0.0 mm 0.00 in0.0 mm 0.00 in0.0 mm
12:01 PM 69.6°F20.9°C 43.4°F6.3°C 39% 4.5 mph SW7.2 kmh SW 6.8 mph10.9 kmh 30.30 in1026.1 mb 0.00 in0.0 mm 0.00 in0.0 mm 0.00 in0.0 mm
12:06 PM 69.8°F21.0°C 44.2°F6.8°C 40% 5.2 mph SSE8.4 kmh SSE 7.2 mph11.6 kmh 30.30 in1026.1 mb 0.00 in0.0 mm 0.00 in0.0 mm 0.00 in0.0 mm
12:11 PM 69.8°F21.0°C 43.5°F6.4°C 39% 6.6 mph SE10.6 kmh SE 9.8 mph15.8 kmh 30.30 in1026.1 mb 0.00 in0.0 mm 0.00 in0.0 mm 0.00 in0.0 mm
12:16 PM 70.1°F21.2°C 43.1°F6.2°C 38% 5.1 mph ESE8.2 kmh ESE 12.0 mph19.3 kmh 30.30 in1026.1 mb 0.00 in0.0 mm 0.00 in0.0 mm 0.00 in0.0 mm
12:21 PM 71.0°F21.7°C 43.9°F6.6°C 38% 4.5 mph ESE7.2 kmh ESE 12.0 mph19.3 kmh 30.30 in1026.1 mb 0.00 in0.0 mm 0.00 in0.0 mm 0.00 in0.0 mm
12:26 PM 71.0°F21.7°C 43.2°F6.2°C 37% 4.5 mph SW7.2 kmh SW 11.6 mph18.7 kmh 30.30 in1026.1 mb 0.00 in0.0 mm 0.00 in0.0 mm 0.00 in0.0 mm
12:31 PM 71.2°F21.8°C 43.4°F6.3°C 37% 3.9 mph SSE6.3 kmh SSE 11.6 mph18.7 kmh 30.30 in1026.1 mb 0.00 in0.0 mm 0.00 in0.0 mm 0.00 in0.0 mm
12:36 PM 72.3°F22.4°C 44.4°F6.9°C 37% 3.8 mph ENE6.1 kmh ENE 11.2 mph18.0 kmh 30.30 in1026.1 mb 0.00 in0.0 mm 0.00 in0.0 mm 0.00 in0.0 mm
12:42 PM 73.7°F23.2°C 44.9°F7.2°C 36% 6.1 mph SE9.8 kmh SE 11.2 mph18.0 kmh 30.30 in1026.1 mb 0.00 in0.0 mm 0.00 in0.0 mm 0.00 in0.0 mm
12:47 PM 74.3°F23.5°C 44.7°F7.1°C 35% 8.1 mph SE13.0 kmh SE 11.6 mph18.7 kmh 30.30 in1026.1 mb 0.00 in0.0 mm 0.00 in0.0 mm 0.00 in0.0 mm
12:52 PM 72.1°F22.3°C 42.0°F5.6°C 34% 8.7 mph ESE14.0 kmh ESE 17.0 mph27.4 kmh 30.27 in1025.1 mb 0.00 in0.0 mm 0.00 in0.0 mm 0.00 in0.0 mm
12:57 PM 71.2°F21.8°C 41.9°F5.5°C 35% 7.1 mph SSE11.4 kmh SSE 17.0 mph27.4 kmh 30.27 in1025.1 mb 0.00 in0.0 mm 0.00 in0.0 mm 0.00 in0.0 mm
01:02 PM 71.0°F21.7°C 41.7°F5.4°C 35% 5.8 mph S9.3 kmh S 11.6 mph18.7 kmh 30.27 in1025.1 mb 0.00 in0.0 mm 0.00 in0.0 mm 0.00 in0.0 mm
01:07 PM 71.4°F21.9°C 42.1°F5.6°C 35% 4.7 mph SE7.6 kmh SE 8.6 mph13.8 kmh 30.27 in1025.1 mb 0.00 in0.0 mm 0.00 in0.0 mm 0.00 in0.0 mm
01:12 PM 71.4°F21.9°C 42.8°F6.0°C 36% 4.8 mph SSW7.7 kmh SSW 8.0 mph12.9 kmh 30.27 in1025.1 mb 0.00 in0.0 mm 0.00 in0.0 mm 0.00 in0.0 mm
01:17 PM 71.2°F21.8°C 43.4°F6.3°C 37% 6.6 mph E10.6 kmh E 12.0 mph19.3 kmh 30.27 in1025.1 mb 0.00 in0.0 mm 0.00 in0.0 mm 0.00 in0.0 mm
01:23 PM 70.9°F21.6°C 42.4°F5.8°C 36% 4.3 mph SE6.9 kmh SE 12.0 mph19.3 kmh 30.27 in1025.1 mb 0.00 in0.0 mm 0.00 in0.0 mm 0.00 in0.0 mm
01:28 PM 70.5°F21.4°C 42.0°F5.6°C 36% 6.1 mph SE9.8 kmh SE 9.4 mph15.1 kmh 30.27 in1025.1 mb 0.00 in0.0 mm 0.00 in0.0 mm 0.00 in0.0 mm
01:33 PM 70.0°F21.1°C 41.6°F5.3°C 36% 3.2 mph S5.1 kmh S 9.4 mph15.1 kmh 30.27 in1025.1 mb 0.00 in0.0 mm 0.00 in0.0 mm 0.00 in0.0 mm
01:38 PM 70.1°F21.2°C 41.7°F5.4°C 36% 5.4 mph SE8.7 kmh SE 6.8 mph10.9 kmh 30.27 in1025.1 mb 0.00 in0.0 mm 0.00 in0.0 mm 0.00 in0.0 mm
01:43 PM 70.0°F21.1°C 42.3°F5.7°C 37% 5.5 mph SE8.9 kmh SE 11.2 mph18.0 kmh 30.27 in1025.1 mb 0.00 in0.0 mm 0.00 in0.0 mm 0.00 in0.0 mm
01:48 PM 70.0°F21.1°C 42.3°F5.7°C 37% 6.5 mph SE10.5 kmh SE 11.2 mph18.0 kmh 30.27 in1025.1 mb 0.00 in0.0 mm 0.00 in0.0 mm 0.00 in0.0 mm
01:53 PM 70.1°F21.2°C 42.4°F5.8°C 37% 3.4 mph SE5.5 kmh SE 9.8 mph15.8 kmh 30.27 in1025.1 mb 0.00 in0.0 mm 0.00 in0.0 mm 0.00 in0.0 mm
01:58 PM 70.1°F21.2°C 43.1°F6.2°C 38% 5.1 mph SE8.2 kmh SE 7.6 mph12.2 kmh 30.27 in1025.1 mb 0.00 in0.0 mm 0.00 in0.0 mm 0.00 in0.0 mm
02:03 PM 70.0°F21.1°C 43.0°F6.1°C 38% 6.3 mph SE10.1 kmh SE 9.8 mph15.8 kmh 30.27 in1025.1 mb 0.00 in0.0 mm 0.00 in0.0 mm 0.00 in0.0 mm
02:08 PM 70.0°F21.1°C 43.7°F6.5°C 39% 4.0 mph SSE6.4 kmh SSE 9.8 mph15.8 kmh 30.24 in1024.0 mb 0.00 in0.0 mm 0.00 in0.0 mm 0.00 in0.0 mm
02:14 PM 70.7°F21.5°C 44.3°F6.8°C 39% 3.3 mph SSE5.3 kmh SSE 5.4 mph8.7 kmh 30.24 in1024.0 mb 0.00 in0.0 mm 0.00 in0.0 mm 0.00 in0.0 mm
02:19 PM 71.0°F21.7°C 44.6°F7.0°C 39% 4.1 mph S6.6 kmh S 7.6 mph12.2 kmh 30.24 in1024.0 mb 0.00 in0.0 mm 0.00 in0.0 mm 0.00 in0.0 mm
02:24 PM 71.8°F22.1°C 44.6°F7.0°C 38% 8.4 mph ESE13.5 kmh ESE 11.2 mph18.0 kmh 30.30 in1026.1 mb 0.00 in0.0 mm 0.00 in0.0 mm 0.00 in0.0 mm
02:30 PM 71.6°F22.0°C 43.7°F6.5°C 37% 4.7 mph SW7.6 kmh SW 11.2 mph18.0 kmh 30.30 in1026.1 mb 0.00 in0.0 mm 0.00 in0.0 mm 0.00 in0.0 mm
02:35 PM 71.6°F22.0°C 44.5°F6.9°C 38% 5.3 mph SSE8.5 kmh SSE 9.4 mph15.1 kmh 30.30 in1026.1 mb 0.00 in0.0 mm 0.00 in0.0 mm 0.00 in0.0 mm
02:40 PM 71.4°F21.9°C 44.3°F6.8°C 38% 4.4 mph SSE7.1 kmh SSE 9.4 mph15.1 kmh 30.27 in1025.1 mb 0.00 in0.0 mm 0.00 in0.0 mm 0.00 in0.0 mm
02:45 PM 70.5°F21.4°C 43.5°F6.4°C 38% 3.6 mph S5.8 kmh S 6.8 mph10.9 kmh 30.27 in1025.1 mb 0.00 in0.0 mm 0.00 in0.0 mm 0.00 in0.0 mm
02:50 PM 70.5°F21.4°C 43.5°F6.4°C 38% 4.0 mph S6.4 kmh S 6.8 mph10.9 kmh 30.27 in1025.1 mb 0.00 in0.0 mm 0.00 in0.0 mm 0.00 in0.0 mm
02:56 PM 70.0°F21.1°C 43.0°F6.1°C 38% 6.8 mph SE10.9 kmh SE 11.2 mph18.0 kmh 30.27 in1025.1 mb 0.00 in0.0 mm 0.00 in0.0 mm 0.00 in0.0 mm
03:01 PM 69.6°F20.9°C 43.4°F6.3°C 39% 3.8 mph SE6.1 kmh SE 11.2 mph18.0 kmh 30.27 in1025.1 mb 0.00 in0.0 mm 0.00 in0.0 mm 0.00 in0.0 mm
03:06 PM 69.2°F20.7°C 43.7°F6.5°C 40% 3.9 mph S6.3 kmh S 7.2 mph11.6 kmh 30.27 in1025.1 mb 0.00 in0.0 mm 0.00 in0.0 mm 0.00 in0.0 mm
03:11 PM 68.9°F20.5°C 43.4°F6.3°C 40% 4.7 mph SSW7.6 kmh SSW 7.2 mph11.6 kmh 30.27 in1025.1 mb 0.00 in0.0 mm 0.00 in0.0 mm 0.00 in0.0 mm
03:16 PM 68.9°F20.5°C 44.1°F6.7°C 41% 3.7 mph WSW6.0 kmh WSW 5.8 mph9.3 kmh 30.27 in1025.1 mb 0.00 in0.0 mm 0.00 in0.0 mm 0.00 in0.0 mm
03:21 PM 68.9°F20.5°C 44.7°F7.1°C 42% 3.6 mph S5.8 kmh S 5.8 mph9.3 kmh 30.27 in1025.1 mb 0.00 in0.0 mm 0.00 in0.0 mm 0.00 in0.0 mm
03:27 PM 69.1°F20.6°C 44.9°F7.2°C 42% 3.8 mph SE6.1 kmh SE 5.4 mph8.7 kmh 30.27 in1025.1 mb 0.00 in0.0 mm 0.00 in0.0 mm 0.00 in0.0 mm
03:32 PM 68.9°F20.5°C 45.4°F7.4°C 43% 2.0 mph SSE3.2 kmh SSE 5.4 mph8.7 kmh 30.27 in1025.1 mb 0.00 in0.0 mm 0.00 in0.0 mm 0.00 in0.0 mm
03:37 PM 68.7°F20.4°C 45.2°F7.3°C 43% 4.2 mph S6.8 kmh S 5.8 mph9.3 kmh 30.27 in1025.1 mb 0.00 in0.0 mm 0.00 in0.0 mm 0.00 in0.0 mm
03:42 PM 68.3°F20.2°C 44.8°F7.1°C 43% 3.5 mph S5.6 kmh S 5.8 mph9.3 kmh 30.27 in1025.1 mb 0.00 in0.0 mm 0.00 in0.0 mm 0.00 in0.0 mm
03:47 PM 68.3°F20.2°C 44.8°F7.1°C 43% 3.3 mph SSW5.3 kmh SSW 5.8 mph9.3 kmh 30.27 in1025.1 mb 0.00 in0.0 mm 0.00 in0.0 mm 0.00 in0.0 mm
03:52 PM 68.9°F20.5°C 45.4°F7.4°C 43% 2.4 mph S3.9 kmh S 5.8 mph9.3 kmh 30.24 in1024.0 mb 0.00 in0.0 mm 0.00 in0.0 mm 0.00 in0.0 mm
03:57 PM 69.2°F20.7°C 45.6°F7.6°C 43% 4.3 mph ESE6.9 kmh ESE 6.8 mph10.9 kmh 30.24 in1024.0 mb 0.00 in0.0 mm 0.00 in0.0 mm 0.00 in0.0 mm
04:02 PM 69.1°F20.6°C 45.5°F7.5°C 43% 3.4 mph ESE5.5 kmh ESE 9.0 mph14.5 kmh 30.24 in1024.0 mb 0.00 in0.0 mm 0.00 in0.0 mm 0.00 in0.0 mm
04:07 PM 68.9°F20.5°C 46.0°F7.8°C 44% 4.2 mph ESE6.8 kmh ESE 9.0 mph14.5 kmh 30.24 in1024.0 mb 0.00 in0.0 mm 0.00 in0.0 mm 0.00 in0.0 mm
04:12 PM 68.7°F20.4°C 45.8°F7.7°C 44% 2.5 mph E4.0 kmh E 9.0 mph14.5 kmh 30.24 in1024.0 mb 0.00 in0.0 mm 0.00 in0.0 mm 0.00 in0.0 mm
04:17 PM 68.5°F20.3°C 45.6°F7.6°C 44% 4.7 mph SE7.6 kmh SE 7.2 mph11.6 kmh 30.24 in1024.0 mb 0.00 in0.0 mm 0.00 in0.0 mm 0.00 in0.0 mm
04:22 PM 68.0°F20.0°C 45.2°F7.3°C 44% 5.2 mph SE8.4 kmh SE 7.6 mph12.2 kmh 30.24 in1024.0 mb 0.00 in0.0 mm 0.00 in0.0 mm 0.00 in0.0 mm
04:28 PM 67.6°F19.8°C 45.4°F7.4°C 45% 5.5 mph ESE8.9 kmh ESE 8.6 mph13.8 kmh 30.24 in1024.0 mb 0.00 in0.0 mm 0.00 in0.0 mm 0.00 in0.0 mm
04:33 PM 67.3°F19.6°C 45.1°F7.3°C 45% 4.0 mph SE6.4 kmh SE 8.6 mph13.8 kmh 30.24 in1024.0 mb 0.00 in0.0 mm 0.00 in0.0 mm 0.00 in0.0 mm
04:40 PM 66.9°F19.4°C 45.4°F7.4°C 46% 4.1 mph SE6.6 kmh SE 7.6 mph12.2 kmh 30.24 in1024.0 mb 0.00 in0.0 mm 0.00 in0.0 mm 0.00 in0.0 mm
04:45 PM 66.7°F19.3°C 45.8°F7.7°C 47% 5.8 mph E9.3 kmh E 8.0 mph12.9 kmh 30.24 in1024.0 mb 0.00 in0.0 mm 0.00 in0.0 mm 0.00 in0.0 mm
04:51 PM 66.7°F19.3°C 45.8°F7.7°C 47% 4.2 mph ESE6.8 kmh ESE 9.8 mph15.8 kmh 30.24 in1024.0 mb 0.00 in0.0 mm 0.00 in0.0 mm 0.00 in0.0 mm
04:56 PM 66.7°F19.3°C 45.8°F7.7°C 47% 4.0 mph SE6.4 kmh SE 9.8 mph15.8 kmh 30.24 in1024.0 mb 0.00 in0.0 mm 0.00 in0.0 mm 0.00 in0.0 mm
05:01 PM 66.7°F19.3°C 45.8°F7.7°C 47% 3.3 mph ESE5.3 kmh ESE 5.0 mph8.0 kmh 30.24 in1024.0 mb 0.00 in0.0 mm 0.00 in0.0 mm 0.00 in0.0 mm
05:06 PM 66.7°F19.3°C 45.8°F7.7°C 47% 4.3 mph ESE6.9 kmh ESE 6.8 mph10.9 kmh 30.24 in1024.0 mb 0.00 in0.0 mm 0.00 in0.0 mm 0.00 in0.0 mm
05:12 PM 66.5°F19.2°C 46.2°F7.9°C 48% 3.5 mph ESE5.6 kmh ESE 6.8 mph10.9 kmh 30.24 in1024.0 mb 0.00 in0.0 mm 0.00 in0.0 mm 0.00 in0.0 mm
05:17 PM 66.5°F19.2°C 46.2°F7.9°C 48% 3.0 mph SE4.8 kmh SE 6.2 mph10.0 kmh 30.24 in1024.0 mb 0.00 in0.0 mm 0.00 in0.0 mm 0.00 in0.0 mm
05:23 PM 66.2°F19.0°C 45.9°F7.7°C 48% Calm Calm 6.2 mph10.0 kmh 30.24 in1024.0 mb 0.00 in0.0 mm 0.00 in0.0 mm 0.00 in0.0 mm
05:28 PM 66.0°F18.9°C 46.3°F7.9°C 49% Calm Calm -- 30.24 in1024.0 mb 0.00 in0.0 mm 0.00 in0.0 mm 0.00 in0.0 mm
05:34 PM 65.8°F18.8°C 46.1°F7.8°C 49% Calm Calm 2.6 mph4.2 kmh 30.24 in1024.0 mb 0.00 in0.0 mm 0.00 in0.0 mm 0.00 in0.0 mm
05:39 PM 65.5°F18.6°C 46.4°F8.0°C 50% Calm Calm 2.6 mph4.2 kmh 30.24 in1024.0 mb 0.00 in0.0 mm 0.00 in0.0 mm 0.00 in0.0 mm
05:44 PM 65.5°F18.6°C 46.4°F8.0°C 50% Calm Calm -- 30.24 in1024.0 mb 0.00 in0.0 mm 0.00 in0.0 mm 0.00 in0.0 mm
05:49 PM 65.3°F18.5°C 46.2°F7.9°C 50% 2.1 mph ESE3.4 kmh ESE 2.6 mph4.2 kmh 30.24 in1024.0 mb 0.00 in0.0 mm 0.00 in0.0 mm 0.00 in0.0 mm
05:54 PM 65.1°F18.4°C 46.0°F7.8°C 50% 2.2 mph ESE3.5 kmh ESE 2.6 mph4.2 kmh 30.24 in1024.0 mb 0.00 in0.0 mm 0.00 in0.0 mm 0.00 in0.0 mm
05:59 PM 64.9°F18.3°C 45.8°F7.7°C 50% Calm Calm 2.2 mph3.5 kmh 30.24 in1024.0 mb 0.00 in0.0 mm 0.00 in0.0 mm 0.00 in0.0 mm
06:05 PM 64.6°F18.1°C 46.6°F8.1°C 52% Calm Calm -- 30.24 in1024.0 mb 0.00 in0.0 mm 0.00 in0.0 mm 0.00 in0.0 mm
06:10 PM 64.4°F18.0°C 46.4°F8.0°C 52% Calm Calm -- 30.24 in1024.0 mb 0.00 in0.0 mm 0.00 in0.0 mm 0.00 in0.0 mm
06:15 PM 64.0°F17.8°C 46.6°F8.1°C 53% Calm Calm -- 30.24 in1024.0 mb 0.00 in0.0 mm 0.00 in0.0 mm 0.00 in0.0 mm
06:20 PM 63.7°F17.6°C 47.3°F8.5°C 55% Calm Calm -- 30.24 in1024.0 mb 0.00 in0.0 mm 0.00 in0.0 mm 0.00 in0.0 mm
06:25 PM 63.5°F17.5°C 47.6°F8.7°C 56% Calm Calm -- 30.21 in1023.0 mb 0.00 in0.0 mm 0.00 in0.0 mm 0.00 in0.0 mm
06:30 PM 63.1°F17.3°C 47.7°F8.7°C 57% Calm Calm -- 30.21 in1023.0 mb 0.00 in0.0 mm 0.00 in0.0 mm 0.00 in0.0 mm
06:35 PM 62.9°F17.2°C 48.0°F8.9°C 58% Calm Calm -- 30.21 in1023.0 mb 0.00 in0.0 mm 0.00 in0.0 mm 0.00 in0.0 mm
06:40 PM 62.6°F17.0°C 47.7°F8.7°C 58% Calm Calm -- 30.21 in1023.0 mb 0.00 in0.0 mm 0.00 in0.0 mm 0.00 in0.0 mm
06:45 PM 62.4°F16.9°C 48.0°F8.9°C 59% Calm Calm -- 30.21 in1023.0 mb 0.00 in0.0 mm 0.00 in0.0 mm 0.00 in0.0 mm
06:50 PM 62.0°F16.7°C 48.1°F8.9°C 60% Calm Calm -- 30.21 in1023.0 mb 0.00 in0.0 mm 0.00 in0.0 mm 0.00 in0.0 mm
06:55 PM 61.7°F16.5°C 48.2°F9.0°C 61% Calm Calm -- 30.21 in1023.0 mb 0.00 in0.0 mm 0.00 in0.0 mm 0.00 in0.0 mm
07:00 PM 61.5°F16.4°C 48.0°F8.9°C 61% Calm Calm -- 30.21 in1023.0 mb 0.00 in0.0 mm 0.00 in0.0 mm 0.00 in0.0 mm
07:06 PM 61.1°F16.2°C 48.1°F8.9°C 62% Calm Calm -- 30.24 in1024.0 mb 0.00 in0.0 mm 0.00 in0.0 mm 0.00 in0.0 mm
07:11 PM 61.1°F16.2°C 48.1°F8.9°C 62% Calm Calm -- 30.24 in1024.0 mb 0.00 in0.0 mm 0.00 in0.0 mm 0.00 in0.0 mm
07:16 PM 60.8°F16.0°C 48.7°F9.3°C 64% Calm Calm -- 30.24 in1024.0 mb 0.00 in0.0 mm 0.00 in0.0 mm 0.00 in0.0 mm
07:21 PM 60.6°F15.9°C 48.9°F9.4°C 65% Calm Calm -- 30.24 in1024.0 mb 0.00 in0.0 mm 0.00 in0.0 mm 0.00 in0.0 mm
07:26 PM 60.4°F15.8°C 49.9°F9.9°C 68% Calm Calm -- 30.24 in1024.0 mb 0.00 in0.0 mm 0.00 in0.0 mm 0.00 in0.0 mm
07:31 PM 60.2°F15.7°C 49.3°F9.6°C 67% Calm Calm -- 30.24 in1024.0 mb 0.00 in0.0 mm 0.00 in0.0 mm 0.00 in0.0 mm
07:37 PM 60.1°F15.6°C 49.2°F9.6°C 67% Calm Calm -- 30.24 in1024.0 mb 0.00 in0.0 mm 0.00 in0.0 mm 0.00 in0.0 mm
07:42 PM 59.9°F15.5°C 49.8°F9.9°C 69% Calm Calm -- 30.24 in1024.0 mb 0.00 in0.0 mm 0.00 in0.0 mm 0.00 in0.0 mm
07:47 PM 59.8°F15.4°C 49.6°F9.8°C 69% Calm Calm -- 30.24 in1024.0 mb 0.00 in0.0 mm 0.00 in0.0 mm 0.00 in0.0 mm
07:52 PM 59.6°F15.3°C 49.4°F9.7°C 69% Calm Calm -- 30.24 in1024.0 mb 0.00 in0.0 mm 0.00 in0.0 mm 0.00 in0.0 mm
07:58 PM 59.3°F15.2°C 49.5°F9.7°C 70% Calm Calm -- 30.24 in1024.0 mb 0.00 in0.0 mm 0.00 in0.0 mm 0.00 in0.0 mm
08:03 PM 59.1°F15.1°C 49.7°F9.8°C 71% Calm Calm -- 30.24 in1024.0 mb 0.00 in0.0 mm 0.00 in0.0 mm 0.00 in0.0 mm
08:10 PM 59.1°F15.1°C 49.7°F9.8°C 71% Calm Calm -- 30.24 in1024.0 mb 0.00 in0.0 mm 0.00 in0.0 mm 0.00 in0.0 mm
08:15 PM 58.9°F14.9°C 49.5°F9.7°C 71% Calm Calm -- 30.24 in1024.0 mb 0.00 in0.0 mm 0.00 in0.0 mm 0.00 in0.0 mm
08:20 PM 58.9°F14.9°C 49.9°F9.9°C 72% Calm Calm -- 30.24 in1024.0 mb 0.00 in0.0 mm 0.00 in0.0 mm 0.00 in0.0 mm
08:25 PM 58.7°F14.8°C 50.4°F10.2°C 74% Calm Calm -- 30.24 in1024.0 mb 0.00 in0.0 mm 0.00 in0.0 mm 0.00 in0.0 mm
08:30 PM 58.7°F14.8°C 50.4°F10.2°C 74% Calm Calm -- 30.24 in1024.0 mb 0.00 in0.0 mm 0.00 in0.0 mm 0.00 in0.0 mm
08:35 PM 58.7°F14.8°C 50.4°F10.2°C 74% Calm Calm -- 30.24 in1024.0 mb 0.00 in0.0 mm 0.00 in0.0 mm 0.00 in0.0 mm
08:40 PM 58.5°F14.7°C 50.6°F10.3°C 75% Calm Calm -- 30.24 in1024.0 mb 0.00 in0.0 mm 0.00 in0.0 mm 0.00 in0.0 mm
08:45 PM 58.4°F14.7°C 50.1°F10.1°C 74% Calm Calm -- 30.24 in1024.0 mb 0.00 in0.0 mm 0.00 in0.0 mm 0.00 in0.0 mm
08:51 PM 58.4°F14.7°C 49.8°F9.9°C 73% Calm Calm -- 30.24 in1024.0 mb 0.00 in0.0 mm 0.00 in0.0 mm 0.00 in0.0 mm
08:56 PM 58.4°F14.7°C 49.8°F9.9°C 73% Calm Calm -- 30.24 in1024.0 mb 0.00 in0.0 mm 0.00 in0.0 mm 0.00 in0.0 mm
09:01 PM 58.4°F14.7°C 50.1°F10.1°C 74% Calm Calm -- 30.24 in1024.0 mb 0.00 in0.0 mm 0.00 in0.0 mm 0.00 in0.0 mm
09:06 PM 58.5°F14.7°C 50.2°F10.1°C 74% 3.5 mph ESE5.6 kmh ESE 6.2 mph10.0 kmh 30.24 in1024.0 mb 0.00 in0.0 mm 0.00 in0.0 mm 0.00 in0.0 mm
09:11 PM 58.7°F14.8°C 50.4°F10.2°C 74% 4.3 mph SE6.9 kmh SE 6.2 mph10.0 kmh 30.24 in1024.0 mb 0.00 in0.0 mm 0.00 in0.0 mm 0.00 in0.0 mm
09:16 PM 59.1°F15.1°C 50.8°F10.4°C 74% 4.9 mph ESE7.9 kmh ESE 7.2 mph11.6 kmh 30.24 in1024.0 mb 0.00 in0.0 mm 0.00 in0.0 mm 0.00 in0.0 mm
09:21 PM 59.3°F15.2°C 50.6°F10.3°C 73% 2.6 mph ESE4.2 kmh ESE 7.2 mph11.6 kmh 30.24 in1024.0 mb 0.00 in0.0 mm 0.00 in0.0 mm 0.00 in0.0 mm
09:26 PM 59.3°F15.2°C 50.6°F10.3°C 73% 2.9 mph SE4.7 kmh SE 6.2 mph10.0 kmh 30.24 in1024.0 mb 0.00 in0.0 mm 0.00 in0.0 mm 0.00 in0.0 mm
09:31 PM 59.4°F15.2°C 50.7°F10.4°C 73% 3.5 mph SSE5.6 kmh SSE 7.6 mph12.2 kmh 30.24 in1024.0 mb 0.00 in0.0 mm 0.00 in0.0 mm 0.00 in0.0 mm
09:36 PM 59.6°F15.3°C 50.9°F10.5°C 73% 4.0 mph SE6.4 kmh SE 7.6 mph12.2 kmh 30.27 in1025.1 mb 0.00 in0.0 mm 0.00 in0.0 mm 0.00 in0.0 mm
09:43 PM 59.9°F15.5°C 51.7°F10.9°C 74% 4.2 mph SSE6.8 kmh SSE 6.8 mph10.9 kmh 30.27 in1025.1 mb 0.00 in0.0 mm 0.00 in0.0 mm 0.00 in0.0 mm
09:48 PM 59.9°F15.5°C 51.3°F10.7°C 73% 2.9 mph SE4.7 kmh SE 6.8 mph10.9 kmh 30.27 in1025.1 mb 0.00 in0.0 mm 0.00 in0.0 mm 0.00 in0.0 mm
09:53 PM 60.1°F15.6°C 51.9°F11.1°C 74% 4.6 mph SSE7.4 kmh SSE 6.8 mph10.9 kmh 30.24 in1024.0 mb 0.00 in0.0 mm 0.00 in0.0 mm 0.00 in0.0 mm
09:58 PM 60.1°F15.6°C 51.9°F11.1°C 74% 5.8 mph SE9.3 kmh SE 7.2 mph11.6 kmh 30.24 in1024.0 mb 0.00 in0.0 mm 0.00 in0.0 mm 0.00 in0.0 mm
10:04 PM 60.1°F15.6°C 51.5°F10.8°C 73% 3.6 mph SSE5.8 kmh SSE 7.2 mph11.6 kmh 30.24 in1024.0 mb 0.00 in0.0 mm 0.00 in0.0 mm 0.00 in0.0 mm
10:09 PM 60.1°F15.6°C 52.2°F11.2°C 75% 6.3 mph SE10.1 kmh SE 9.4 mph15.1 kmh 30.24 in1024.0 mb 0.00 in0.0 mm 0.00 in0.0 mm 0.00 in0.0 mm
10:14 PM 60.1°F15.6°C 51.9°F11.1°C 74% 4.3 mph SE6.9 kmh SE 9.4 mph15.1 kmh 30.24 in1024.0 mb 0.00 in0.0 mm 0.00 in0.0 mm 0.00 in0.0 mm
10:19 PM 60.1°F15.6°C 51.9°F11.1°C 74% 3.8 mph SSE6.1 kmh SSE 7.6 mph12.2 kmh 30.24 in1024.0 mb 0.00 in0.0 mm 0.00 in0.0 mm 0.00 in0.0 mm
10:26 PM 59.9°F15.5°C 52.0°F11.1°C 75% 5.3 mph SSE8.5 kmh SSE 7.6 mph12.2 kmh 30.24 in1024.0 mb 0.00 in0.0 mm 0.00 in0.0 mm 0.00 in0.0 mm
10:31 PM 59.9°F15.5°C 52.4°F11.3°C 76% 5.2 mph SSE8.4 kmh SSE 7.2 mph11.6 kmh 30.24 in1024.0 mb 0.00 in0.0 mm 0.00 in0.0 mm 0.00 in0.0 mm
10:36 PM 59.9°F15.5°C 52.7°F11.5°C 77% 6.2 mph S10.0 kmh S 7.6 mph12.2 kmh 30.24 in1024.0 mb 0.00 in0.0 mm 0.00 in0.0 mm 0.00 in0.0 mm
10:41 PM 59.9°F15.5°C 52.7°F11.5°C 77% 5.1 mph SE8.2 kmh SE 8.6 mph13.8 kmh 30.24 in1024.0 mb 0.00 in0.0 mm 0.00 in0.0 mm 0.00 in0.0 mm
10:46 PM 59.8°F15.4°C 52.5°F11.4°C 77% 4.2 mph SE6.8 kmh SE 8.6 mph13.8 kmh 30.24 in1024.0 mb 0.00 in0.0 mm 0.00 in0.0 mm 0.00 in0.0 mm
10:51 PM 59.8°F15.4°C 52.9°F11.6°C 78% 4.2 mph SSE6.8 kmh SSE 8.0 mph12.9 kmh 30.24 in1024.0 mb 0.00 in0.0 mm 0.00 in0.0 mm 0.00 in0.0 mm
10:56 PM 59.6°F15.3°C 52.7°F11.5°C 78% 4.6 mph SSE7.4 kmh SSE 7.6 mph12.2 kmh 30.24 in1024.0 mb 0.00 in0.0 mm 0.00 in0.0 mm 0.00 in0.0 mm
11:01 PM 59.6°F15.3°C 52.7°F11.5°C 78% 5.3 mph S8.5 kmh S 7.6 mph12.2 kmh 30.24 in1024.0 mb 0.00 in0.0 mm 0.00 in0.0 mm 0.00 in0.0 mm
11:06 PM 59.6°F15.3°C 52.7°F11.5°C 78% 6.5 mph SSE10.5 kmh SSE 9.4 mph15.1 kmh 30.24 in1024.0 mb 0.00 in0.0 mm 0.00 in0.0 mm 0.00 in0.0 mm
11:11 PM 59.6°F15.3°C 52.7°F11.5°C 78% 4.4 mph S7.1 kmh S 9.4 mph15.1 kmh 30.24 in1024.0 mb 0.00 in0.0 mm 0.00 in0.0 mm 0.00 in0.0 mm
11:17 PM 59.6°F15.3°C 52.7°F11.5°C 78% 4.3 mph SSE6.9 kmh SSE 6.2 mph10.0 kmh 30.24 in1024.0 mb 0.00 in0.0 mm 0.00 in0.0 mm 0.00 in0.0 mm
11:22 PM 59.6°F15.3°C 52.7°F11.5°C 78% 4.7 mph SE7.6 kmh SE 6.2 mph10.0 kmh 30.24 in1024.0 mb 0.00 in0.0 mm 0.00 in0.0 mm 0.00 in0.0 mm
11:27 PM 59.4°F15.2°C 52.5°F11.4°C 78% 7.8 mph SE12.6 kmh SE 14.4 mph23.2 kmh 30.24 in1024.0 mb 0.00 in0.0 mm 0.00 in0.0 mm 0.00 in0.0 mm
11:32 PM 59.4°F15.2°C 52.5°F11.4°C 78% 5.3 mph S8.5 kmh S 14.4 mph23.2 kmh 30.24 in1024.0 mb 0.00 in0.0 mm 0.00 in0.0 mm 0.00 in0.0 mm
11:38 PM 59.3°F15.2°C 52.4°F11.3°C 78% 3.9 mph SSE6.3 kmh SSE 8.6 mph13.8 kmh 30.24 in1024.0 mb 0.00 in0.0 mm 0.00 in0.0 mm 0.00 in0.0 mm
11:43 PM 59.3°F15.2°C 52.4°F11.3°C 78% 4.0 mph SE6.4 kmh SE 9.4 mph15.1 kmh 30.24 in1024.0 mb 0.00 in0.0 mm 0.00 in0.0 mm 0.00 in0.0 mm
11:50 PM 59.1°F15.1°C 52.2°F11.2°C 78% 3.8 mph SSE6.1 kmh SSE 7.2 mph11.6 kmh 30.24 in1024.0 mb 0.00 in0.0 mm 0.00 in0.0 mm 0.00 in0.0 mm
11:55 PM 58.7°F14.8°C 51.8°F11.0°C 78% 2.8 mph SSE4.5 kmh SSE 7.2 mph11.6 kmh 30.24 in1024.0 mb 0.00 in0.0 mm 0.00 in0.0 mm 0.00 in0.0 mm